sensor_id;sensor_type;location;lat;lon;timestamp;temperature;humidity
43810;DHT22;29440;48.208;11.162;2023-04-01T00:01:41;7.80;99.90
43810;DHT22;29440;48.208;11.162;2023-04-01T00:04:06;7.60;99.90
43810;DHT22;29440;48.208;11.162;2023-04-01T00:06:32;7.60;99.90
43810;DHT22;29440;48.208;11.162;2023-04-01T00:08:58;7.60;99.90
43810;DHT22;29440;48.208;11.162;2023-04-01T00:11:23;7.60;99.90
43810;DHT22;29440;48.208;11.162;2023-04-01T00:13:53;7.70;99.90
43810;DHT22;29440;48.208;11.162;2023-04-01T00:16:18;7.50;99.90
43810;DHT22;29440;48.208;11.162;2023-04-01T00:18:44;7.60;99.90
43810;DHT22;29440;48.208;11.162;2023-04-01T00:21:12;7.50;99.90
43810;DHT22;29440;48.208;11.162;2023-04-01T00:23:38;7.50;99.90
43810;DHT22;29440;48.208;11.162;2023-04-01T00:26:04;7.50;99.90
43810;DHT22;29440;48.208;11.162;2023-04-01T00:28:30;7.50;99.90
43810;DHT22;29440;48.208;11.162;2023-04-01T00:30:56;7.60;99.90
43810;DHT22;29440;48.208;11.162;2023-04-01T00:33:22;7.50;99.90
43810;DHT22;29440;48.208;11.162;2023-04-01T00:35:48;7.50;99.90
43810;DHT22;29440;48.208;11.162;2023-04-01T00:38:14;7.60;99.90
43810;DHT22;29440;48.208;11.162;2023-04-01T00:40:44;7.50;99.90
43810;DHT22;29440;48.208;11.162;2023-04-01T00:43:19;7.50;99.90
43810;DHT22;29440;48.208;11.162;2023-04-01T00:45:47;7.50;99.90
43810;DHT22;29440;48.208;11.162;2023-04-01T00:48:22;7.50;99.90
43810;DHT22;29440;48.208;11.162;2023-04-01T00:51:13;7.50;99.90
43810;DHT22;29440;48.208;11.162;2023-04-01T00:53:42;7.50;99.90
43810;DHT22;29440;48.208;11.162;2023-04-01T00:56:27;7.50;99.90
43810;DHT22;29440;48.208;11.162;2023-04-01T00:59:00;7.50;99.90
43810;DHT22;29440;48.208;11.162;2023-04-01T01:01:28;7.50;99.90
43810;DHT22;29440;48.208;11.162;2023-04-01T01:03:54;7.60;99.90
43810;DHT22;29440;48.208;11.162;2023-04-01T01:06:23;7.60;99.90
43810;DHT22;29440;48.208;11.162;2023-04-01T01:09:18;7.60;99.90
43810;DHT22;29440;48.208;11.162;2023-04-01T01:12:11;7.60;99.90
43810;DHT22;29440;48.208;11.162;2023-04-01T01:17:45;7.50;99.90
43810;DHT22;29440;48.208;11.162;2023-04-01T01:23:22;7.60;99.90
43810;DHT22;29440;48.208;11.162;2023-04-01T01:29:08;7.60;99.90
43810;DHT22;29440;48.208;11.162;2023-04-01T01:31:58;7.50;99.90
43810;DHT22;29440;48.208;11.162;2023-04-01T01:34:53;7.50;99.90
43810;DHT22;29440;48.208;11.162;2023-04-01T01:37:23;7.50;99.90
43810;DHT22;29440;48.208;11.162;2023-04-01T01:39:56;7.50;99.90
43810;DHT22;29440;48.208;11.162;2023-04-01T01:42:28;7.50;99.90
43810;DHT22;29440;48.208;11.162;2023-04-01T01:44:59;7.50;99.90
43810;DHT22;29440;48.208;11.162;2023-04-01T01:47:28;7.60;99.90
43810;DHT22;29440;48.208;11.162;2023-04-01T01:49:57;7.60;99.90
43810;DHT22;29440;48.208;11.162;2023-04-01T01:52:23;7.60;99.90
43810;DHT22;29440;48.208;11.162;2023-04-01T01:54:55;7.60;99.90
43810;DHT22;29440;48.208;11.162;2023-04-01T01:57:37;7.60;99.90
43810;DHT22;29440;48.208;11.162;2023-04-01T02:00:09;7.60;99.90
43810;DHT22;29440;48.208;11.162;2023-04-01T02:02:47;7.60;99.90
43810;DHT22;29440;48.208;11.162;2023-04-01T02:05:20;7.60;99.90
43810;DHT22;29440;48.208;11.162;2023-04-01T02:07:58;7.60;99.90
43810;DHT22;29440;48.208;11.162;2023-04-01T02:10:27;7.50;99.90
43810;DHT22;29440;48.208;11.162;2023-04-01T02:12:57;7.50;99.90
43810;DHT22;29440;48.208;11.162;2023-04-01T02:15:27;7.50;99.90
43810;DHT22;29440;48.208;11.162;2023-04-01T02:17:56;7.50;99.90
43810;DHT22;29440;48.208;11.162;2023-04-01T02:20:24;7.50;99.90
43810;DHT22;29440;48.208;11.162;2023-04-01T02:22:53;7.50;99.90
43810;DHT22;29440;48.208;11.162;2023-04-01T02:25:32;7.60;99.90
43810;DHT22;29440;48.208;11.162;2023-04-01T02:28:00;7.50;99.90
43810;DHT22;29440;48.208;11.162;2023-04-01T02:30:27;7.40;99.90
43810;DHT22;29440;48.208;11.162;2023-04-01T02:32:56;7.50;99.90
43810;DHT22;29440;48.208;11.162;2023-04-01T02:35:23;7.40;99.90
43810;DHT22;29440;48.208;11.162;2023-04-01T02:37:49;7.40;99.90
43810;DHT22;29440;48.208;11.162;2023-04-01T02:40:17;7.40;99.90
43810;DHT22;29440;48.208;11.162;2023-04-01T02:42:43;7.30;99.90
43810;DHT22;29440;48.208;11.162;2023-04-01T02:45:10;7.30;99.90
43810;DHT22;29440;48.208;11.162;2023-04-01T02:47:36;7.40;99.90
43810;DHT22;29440;48.208;11.162;2023-04-01T02:50:02;7.40;99.90
43810;DHT22;29440;48.208;11.162;2023-04-01T02:52:28;7.30;99.90
43810;DHT22;29440;48.208;11.162;2023-04-01T02:54:55;7.30;99.90
43810;DHT22;29440;48.208;11.162;2023-04-01T02:57:20;7.20;99.90
43810;DHT22;29440;48.208;11.162;2023-04-01T02:59:46;7.30;99.90
43810;DHT22;29440;48.208;11.162;2023-04-01T03:02:11;7.20;99.90
43810;DHT22;29440;48.208;11.162;2023-04-01T03:04:37;7.20;99.90
43810;DHT22;29440;48.208;11.162;2023-04-01T03:07:03;7.20;99.90
43810;DHT22;29440;48.208;11.162;2023-04-01T03:09:29;7.20;99.90
43810;DHT22;29440;48.208;11.162;2023-04-01T03:11:54;7.20;99.90
43810;DHT22;29440;48.208;11.162;2023-04-01T03:14:20;7.20;99.90
43810;DHT22;29440;48.208;11.162;2023-04-01T03:16:46;7.10;99.90
43810;DHT22;29440;48.208;11.162;2023-04-01T03:19:12;7.10;99.90
43810;DHT22;29440;48.208;11.162;2023-04-01T03:21:38;7.00;99.90
43810;DHT22;29440;48.208;11.162;2023-04-01T03:24:05;7.00;99.90
43810;DHT22;29440;48.208;11.162;2023-04-01T03:26:31;7.00;99.90
43810;DHT22;29440;48.208;11.162;2023-04-01T03:29:00;7.00;99.90
43810;DHT22;29440;48.208;11.162;2023-04-01T03:31:26;6.90;99.90
43810;DHT22;29440;48.208;11.162;2023-04-01T03:33:51;6.90;99.90
43810;DHT22;29440;48.208;11.162;2023-04-01T03:36:17;6.80;99.90
43810;DHT22;29440;48.208;11.162;2023-04-01T03:38:44;6.90;99.90
43810;DHT22;29440;48.208;11.162;2023-04-01T03:41:14;6.80;99.90
43810;DHT22;29440;48.208;11.162;2023-04-01T03:43:41;6.90;99.90
43810;DHT22;29440;48.208;11.162;2023-04-01T03:46:07;6.80;99.90
43810;DHT22;29440;48.208;11.162;2023-04-01T03:48:32;6.80;99.90
43810;DHT22;29440;48.208;11.162;2023-04-01T03:50:58;6.80;99.90
43810;DHT22;29440;48.208;11.162;2023-04-01T03:53:23;6.80;99.90
43810;DHT22;29440;48.208;11.162;2023-04-01T03:55:49;6.80;99.90
43810;DHT22;29440;48.208;11.162;2023-04-01T03:58:17;6.80;99.90
43810;DHT22;29440;48.208;11.162;2023-04-01T04:00:43;6.70;99.90
43810;DHT22;29440;48.208;11.162;2023-04-01T04:03:08;6.80;99.90
43810;DHT22;29440;48.208;11.162;2023-04-01T04:05:34;6.80;99.90
43810;DHT22;29440;48.208;11.162;2023-04-01T04:08:00;6.80;99.90
43810;DHT22;29440;48.208;11.162;2023-04-01T04:10:26;6.80;99.90
43810;DHT22;29440;48.208;11.162;2023-04-01T04:12:52;6.80;99.90
43810;DHT22;29440;48.208;11.162;2023-04-01T04:15:17;6.80;99.90
43810;DHT22;29440;48.208;11.162;2023-04-01T04:17:45;6.80;99.90
43810;DHT22;29440;48.208;11.162;2023-04-01T04:20:10;6.90;99.90
43810;DHT22;29440;48.208;11.162;2023-04-01T04:22:36;6.80;99.90
43810;DHT22;29440;48.208;11.162;2023-04-01T04:25:02;6.80;99.90
43810;DHT22;29440;48.208;11.162;2023-04-01T04:27:27;6.90;99.90
43810;DHT22;29440;48.208;11.162;2023-04-01T04:29:53;6.90;99.90
43810;DHT22;29440;48.208;11.162;2023-04-01T04:32:18;6.90;99.90
43810;DHT22;29440;48.208;11.162;2023-04-01T04:34:44;6.90;99.90
43810;DHT22;29440;48.208;11.162;2023-04-01T04:37:10;6.90;99.90
43810;DHT22;29440;48.208;11.162;2023-04-01T04:39:35;7.00;99.90
43810;DHT22;29440;48.208;11.162;2023-04-01T04:42:01;7.00;99.90
43810;DHT22;29440;48.208;11.162;2023-04-01T04:44:26;7.00;99.90
43810;DHT22;29440;48.208;11.162;2023-04-01T04:46:52;7.10;99.90
43810;DHT22;29440;48.208;11.162;2023-04-01T04:49:17;7.10;99.90
43810;DHT22;29440;48.208;11.162;2023-04-01T04:51:43;7.10;99.90
43810;DHT22;29440;48.208;11.162;2023-04-01T04:54:09;7.10;99.90
43810;DHT22;29440;48.208;11.162;2023-04-01T04:56:34;7.20;99.90
43810;DHT22;29440;48.208;11.162;2023-04-01T04:59:01;7.20;99.90
43810;DHT22;29440;48.208;11.162;2023-04-01T05:01:27;7.20;99.90
43810;DHT22;29440;48.208;11.162;2023-04-01T05:03:52;7.20;99.90
43810;DHT22;29440;48.208;11.162;2023-04-01T05:06:20;7.30;99.90
43810;DHT22;29440;48.208;11.162;2023-04-01T05:08:46;7.30;99.90
43810;DHT22;29440;48.208;11.162;2023-04-01T05:11:19;7.30;99.90
43810;DHT22;29440;48.208;11.162;2023-04-01T05:13:45;7.30;99.90
43810;DHT22;29440;48.208;11.162;2023-04-01T05:16:14;7.30;99.90
43810;DHT22;29440;48.208;11.162;2023-04-01T05:18:40;7.40;99.90
43810;DHT22;29440;48.208;11.162;2023-04-01T05:21:09;7.40;99.90
43810;DHT22;29440;48.208;11.162;2023-04-01T05:23:35;7.40;99.90
43810;DHT22;29440;48.208;11.162;2023-04-01T05:26:10;7.40;99.90
43810;DHT22;29440;48.208;11.162;2023-04-01T05:28:35;7.40;99.90
43810;DHT22;29440;48.208;11.162;2023-04-01T05:31:02;7.50;99.90
43810;DHT22;29440;48.208;11.162;2023-04-01T05:33:29;7.50;99.90
43810;DHT22;29440;48.208;11.162;2023-04-01T05:35:55;7.50;99.90
43810;DHT22;29440;48.208;11.162;2023-04-01T05:38:20;7.60;99.90
43810;DHT22;29440;48.208;11.162;2023-04-01T05:40:46;7.70;99.90
43810;DHT22;29440;48.208;11.162;2023-04-01T05:43:12;7.70;99.90
43810;DHT22;29440;48.208;11.162;2023-04-01T05:45:37;7.70;99.90
43810;DHT22;29440;48.208;11.162;2023-04-01T05:48:03;7.70;99.90
43810;DHT22;29440;48.208;11.162;2023-04-01T05:50:29;7.80;99.90
43810;DHT22;29440;48.208;11.162;2023-04-01T05:52:55;7.80;99.90
43810;DHT22;29440;48.208;11.162;2023-04-01T05:55:21;7.90;99.90
43810;DHT22;29440;48.208;11.162;2023-04-01T05:57:46;8.00;99.90
43810;DHT22;29440;48.208;11.162;2023-04-01T06:00:14;8.10;99.90
43810;DHT22;29440;48.208;11.162;2023-04-01T06:02:39;8.20;99.90
43810;DHT22;29440;48.208;11.162;2023-04-01T06:05:22;8.50;99.90
43810;DHT22;29440;48.208;11.162;2023-04-01T06:07:48;8.90;99.90
43810;DHT22;29440;48.208;11.162;2023-04-01T06:10:19;8.90;99.90
43810;DHT22;29440;48.208;11.162;2023-04-01T06:15:34;8.90;99.90
43810;DHT22;29440;48.208;11.162;2023-04-01T06:20:48;9.00;99.90
43810;DHT22;29440;48.208;11.162;2023-04-01T06:23:47;9.10;99.90
43810;DHT22;29440;48.208;11.162;2023-04-01T06:26:57;9.30;99.90
43810;DHT22;29440;48.208;11.162;2023-04-01T06:29:52;10.00;99.90
43810;DHT22;29440;48.208;11.162;2023-04-01T06:35:44;10.90;99.90
43810;DHT22;29440;48.208;11.162;2023-04-01T06:57:42;14.40;99.90
43810;DHT22;29440;48.208;11.162;2023-04-01T07:03:10;14.60;99.90
43810;DHT22;29440;48.208;11.162;2023-04-01T07:05:42;14.50;99.90
43810;DHT22;29440;48.208;11.162;2023-04-01T07:08:16;14.50;99.90
43810;DHT22;29440;48.208;11.162;2023-04-01T07:10:54;14.30;99.90
43810;DHT22;29440;48.208;11.162;2023-04-01T07:13:48;14.10;99.90
43810;DHT22;29440;48.208;11.162;2023-04-01T07:21:35;14.30;99.90
43810;DHT22;29440;48.208;11.162;2023-04-01T07:24:05;14.50;99.90
43810;DHT22;29440;48.208;11.162;2023-04-01T07:26:34;14.60;99.90
43810;DHT22;29440;48.208;11.162;2023-04-01T07:28:59;14.80;99.90
43810;DHT22;29440;48.208;11.162;2023-04-01T07:34:13;14.40;99.90
43810;DHT22;29440;48.208;11.162;2023-04-01T07:37:12;13.90;99.90
43810;DHT22;29440;48.208;11.162;2023-04-01T07:47:45;12.20;99.90
43810;DHT22;29440;48.208;11.162;2023-04-01T07:52:59;11.40;99.90
43810;DHT22;29440;48.208;11.162;2023-04-01T08:09:28;10.50;99.90
43810;DHT22;29440;48.208;11.162;2023-04-01T08:19:45;11.80;99.90
43810;DHT22;29440;48.208;11.162;2023-04-01T08:22:22;12.10;99.90
43810;DHT22;29440;48.208;11.162;2023-04-01T08:24:49;12.40;99.90
43810;DHT22;29440;48.208;11.162;2023-04-01T08:27:23;12.40;99.90
43810;DHT22;29440;48.208;11.162;2023-04-01T08:30:18;12.40;99.90
43810;DHT22;29440;48.208;11.162;2023-04-01T08:32:56;12.30;99.90
43810;DHT22;29440;48.208;11.162;2023-04-01T08:35:54;12.30;99.90
43810;DHT22;29440;48.208;11.162;2023-04-01T08:38:36;12.50;99.90
43810;DHT22;29440;48.208;11.162;2023-04-01T08:42:09;12.40;99.90
43810;DHT22;29440;48.208;11.162;2023-04-01T08:52:35;12.30;99.90
43810;DHT22;29440;48.208;11.162;2023-04-01T08:58:17;12.10;99.90
43810;DHT22;29440;48.208;11.162;2023-04-01T09:03:34;12.10;99.90
43810;DHT22;29440;48.208;11.162;2023-04-01T09:06:29;12.20;99.90
43810;DHT22;29440;48.208;11.162;2023-04-01T09:09:20;12.20;99.90
43810;DHT22;29440;48.208;11.162;2023-04-01T09:14:30;12.10;99.90
43810;DHT22;29440;48.208;11.162;2023-04-01T09:28:05;11.80;99.90
43810;DHT22;29440;48.208;11.162;2023-04-01T09:33:48;11.90;99.90
43810;DHT22;29440;48.208;11.162;2023-04-01T09:38:59;11.90;99.90
43810;DHT22;29440;48.208;11.162;2023-04-01T09:41:35;12.00;99.90
43810;DHT22;29440;48.208;11.162;2023-04-01T09:46:48;11.90;99.90
43810;DHT22;29440;48.208;11.162;2023-04-01T09:49:37;11.90;99.90
43810;DHT22;29440;48.208;11.162;2023-04-01T10:04:27;11.70;99.90
43810;DHT22;29440;48.208;11.162;2023-04-01T10:13:40;11.70;99.90
43810;DHT22;29440;48.208;11.162;2023-04-01T10:18:31;11.80;99.90
43810;DHT22;29440;48.208;11.162;2023-04-01T10:24:16;11.90;99.90
43810;DHT22;29440;48.208;11.162;2023-04-01T10:48:50;10.80;99.90
43810;DHT22;29440;48.208;11.162;2023-04-01T10:56:54;10.70;99.90
43810;DHT22;29440;48.208;11.162;2023-04-01T11:05:07;10.70;99.90
43810;DHT22;29440;48.208;11.162;2023-04-01T11:19:31;10.10;99.90
43810;DHT22;29440;48.208;11.162;2023-04-01T11:45:05;9.10;99.90
43810;DHT22;29440;48.208;11.162;2023-04-01T11:50:35;9.00;99.90
43810;DHT22;29440;48.208;11.162;2023-04-01T11:56:10;8.90;99.90
43810;DHT22;29440;48.208;11.162;2023-04-01T11:58:59;8.90;99.90
43810;DHT22;29440;48.208;11.162;2023-04-01T12:18:53;8.80;99.90
43810;DHT22;29440;48.208;11.162;2023-04-01T12:33:15;8.90;99.90
43810;DHT22;29440;48.208;11.162;2023-04-01T12:47:41;9.00;99.90
43810;DHT22;29440;48.208;11.162;2023-04-01T12:50:16;9.00;99.90
43810;DHT22;29440;48.208;11.162;2023-04-01T12:55:53;9.00;99.90
43810;DHT22;29440;48.208;11.162;2023-04-01T12:58:45;9.00;99.90
43810;DHT22;29440;48.208;11.162;2023-04-01T13:15:49;9.20;99.90
43810;DHT22;29440;48.208;11.162;2023-04-01T13:18:31;9.30;99.90
43810;DHT22;29440;48.208;11.162;2023-04-01T13:21:06;9.10;99.90
43810;DHT22;29440;48.208;11.162;2023-04-01T13:26:17;9.20;99.90
43810;DHT22;29440;48.208;11.162;2023-04-01T13:29:07;9.20;99.90
43810;DHT22;29440;48.208;11.162;2023-04-01T13:31:58;9.30;99.90
43810;DHT22;29440;48.208;11.162;2023-04-01T13:37:27;9.40;99.90
43810;DHT22;29440;48.208;11.162;2023-04-01T13:43:10;9.60;99.90
43810;DHT22;29440;48.208;11.162;2023-04-01T13:46:07;9.60;99.90
43810;DHT22;29440;48.208;11.162;2023-04-01T13:51:26;9.50;99.90
43810;DHT22;29440;48.208;11.162;2023-04-01T13:54:17;9.60;99.90
43810;DHT22;29440;48.208;11.162;2023-04-01T14:05:09;9.80;99.90
43810;DHT22;29440;48.208;11.162;2023-04-01T14:07:56;9.90;99.90
43810;DHT22;29440;48.208;11.162;2023-04-01T14:13:17;10.00;99.90
43810;DHT22;29440;48.208;11.162;2023-04-01T14:16:20;9.90;99.90
43810;DHT22;29440;48.208;11.162;2023-04-01T14:22:11;9.80;99.90
43810;DHT22;29440;48.208;11.162;2023-04-01T14:27:57;9.80;99.90
43810;DHT22;29440;48.208;11.162;2023-04-01T14:33:30;9.70;99.90
43810;DHT22;29440;48.208;11.162;2023-04-01T14:44:58;9.70;99.90
43810;DHT22;29440;48.208;11.162;2023-04-01T14:48:13;9.70;99.90
43810;DHT22;29440;48.208;11.162;2023-04-01T14:50:45;9.70;99.90
43810;DHT22;29440;48.208;11.162;2023-04-01T14:53:23;9.70;99.90
43810;DHT22;29440;48.208;11.162;2023-04-01T14:56:01;9.70;99.90
43810;DHT22;29440;48.208;11.162;2023-04-01T14:58:57;9.70;99.90
43810;DHT22;29440;48.208;11.162;2023-04-01T15:01:43;9.70;99.90
43810;DHT22;29440;48.208;11.162;2023-04-01T15:07:26;9.70;99.90
43810;DHT22;29440;48.208;11.162;2023-04-01T15:10:12;9.80;99.90
43810;DHT22;29440;48.208;11.162;2023-04-01T15:40:20;9.90;99.90
43810;DHT22;29440;48.208;11.162;2023-04-01T15:43:01;10.00;99.90
43810;DHT22;29440;48.208;11.162;2023-04-01T15:48:28;10.10;99.90
43810;DHT22;29440;48.208;11.162;2023-04-01T16:07:54;9.80;99.90
43810;DHT22;29440;48.208;11.162;2023-04-01T16:13:35;9.80;99.90
43810;DHT22;29440;48.208;11.162;2023-04-01T16:16:10;9.80;99.90
43810;DHT22;29440;48.208;11.162;2023-04-01T16:27:19;9.60;99.90
43810;DHT22;29440;48.208;11.162;2023-04-01T16:30:16;9.70;99.90
43810;DHT22;29440;48.208;11.162;2023-04-01T16:35:37;9.60;99.90
43810;DHT22;29440;48.208;11.162;2023-04-01T16:43:23;9.60;99.90
43810;DHT22;29440;48.208;11.162;2023-04-01T16:46:27;9.60;99.90
43810;DHT22;29440;48.208;11.162;2023-04-01T16:51:40;9.50;99.90
43810;DHT22;29440;48.208;11.162;2023-04-01T16:54:34;9.50;99.90
43810;DHT22;29440;48.208;11.162;2023-04-01T17:02:25;9.40;99.90
43810;DHT22;29440;48.208;11.162;2023-04-01T17:05:08;9.40;99.90
43810;DHT22;29440;48.208;11.162;2023-04-01T17:07:37;9.40;99.90
43810;DHT22;29440;48.208;11.162;2023-04-01T17:10:18;9.30;99.90
43810;DHT22;29440;48.208;11.162;2023-04-01T17:15:31;9.30;99.90
43810;DHT22;29440;48.208;11.162;2023-04-01T17:18:41;9.30;99.90
43810;DHT22;29440;48.208;11.162;2023-04-01T17:21:46;9.20;99.90
43810;DHT22;29440;48.208;11.162;2023-04-01T17:30:30;9.20;99.90
43810;DHT22;29440;48.208;11.162;2023-04-01T17:33:17;9.20;99.90
43810;DHT22;29440;48.208;11.162;2023-04-01T17:38:50;9.20;99.90
43810;DHT22;29440;48.208;11.162;2023-04-01T17:44:48;9.10;99.90
43810;DHT22;29440;48.208;11.162;2023-04-01T17:47:43;9.10;99.90
43810;DHT22;29440;48.208;11.162;2023-04-01T17:50:27;9.10;99.90
43810;DHT22;29440;48.208;11.162;2023-04-01T17:53:19;9.10;99.90
43810;DHT22;29440;48.208;11.162;2023-04-01T17:55:50;9.10;99.90
43810;DHT22;29440;48.208;11.162;2023-04-01T18:15:19;9.00;99.90
43810;DHT22;29440;48.208;11.162;2023-04-01T18:17:51;9.00;99.90
43810;DHT22;29440;48.208;11.162;2023-04-01T18:23:00;9.00;99.90
43810;DHT22;29440;48.208;11.162;2023-04-01T18:25:40;9.00;99.90
43810;DHT22;29440;48.208;11.162;2023-04-01T18:28:35;9.00;99.90
43810;DHT22;29440;48.208;11.162;2023-04-01T18:36:51;9.00;99.90
43810;DHT22;29440;48.208;11.162;2023-04-01T18:39:21;9.00;99.90
43810;DHT22;29440;48.208;11.162;2023-04-01T18:42:06;9.00;99.90
43810;DHT22;29440;48.208;11.162;2023-04-01T18:44:50;9.00;99.90
43810;DHT22;29440;48.208;11.162;2023-04-01T18:51:03;8.90;99.90
43810;DHT22;29440;48.208;11.162;2023-04-01T18:56:01;8.90;99.90
43810;DHT22;29440;48.208;11.162;2023-04-01T18:58:52;8.90;99.90
43810;DHT22;29440;48.208;11.162;2023-04-01T19:04:17;8.80;99.90
43810;DHT22;29440;48.208;11.162;2023-04-01T19:09:19;8.70;99.90
43810;DHT22;29440;48.208;11.162;2023-04-01T19:12:19;8.70;99.90
43810;DHT22;29440;48.208;11.162;2023-04-01T19:15:01;8.70;99.90
43810;DHT22;29440;48.208;11.162;2023-04-01T19:17:54;8.60;99.90
43810;DHT22;29440;48.208;11.162;2023-04-01T19:26:25;8.40;99.90
43810;DHT22;29440;48.208;11.162;2023-04-01T19:28:56;8.40;99.90
43810;DHT22;29440;48.208;11.162;2023-04-01T19:34:22;8.30;99.90
43810;DHT22;29440;48.208;11.162;2023-04-01T19:36:57;8.30;99.90
43810;DHT22;29440;48.208;11.162;2023-04-01T19:43:00;8.20;99.90
43810;DHT22;29440;48.208;11.162;2023-04-01T19:48:44;8.10;99.90
43810;DHT22;29440;48.208;11.162;2023-04-01T19:51:31;8.10;99.90
43810;DHT22;29440;48.208;11.162;2023-04-01T19:57:21;8.00;99.90
43810;DHT22;29440;48.208;11.162;2023-04-01T20:00:15;8.00;99.90
43810;DHT22;29440;48.208;11.162;2023-04-01T20:10:44;7.90;99.90
43810;DHT22;29440;48.208;11.162;2023-04-01T20:13:41;7.90;99.90
43810;DHT22;29440;48.208;11.162;2023-04-01T20:16:09;7.90;99.90
43810;DHT22;29440;48.208;11.162;2023-04-01T20:18:41;7.90;99.90
43810;DHT22;29440;48.208;11.162;2023-04-01T20:21:41;7.80;99.90
43810;DHT22;29440;48.208;11.162;2023-04-01T20:24:14;7.80;99.90
43810;DHT22;29440;48.208;11.162;2023-04-01T20:26:46;7.80;99.90
43810;DHT22;29440;48.208;11.162;2023-04-01T20:29:45;7.80;99.90
43810;DHT22;29440;48.208;11.162;2023-04-01T20:37:57;7.80;99.90
43810;DHT22;29440;48.208;11.162;2023-04-01T20:40:38;7.80;99.90
43810;DHT22;29440;48.208;11.162;2023-04-01T20:43:30;7.80;99.90
43810;DHT22;29440;48.208;11.162;2023-04-01T20:46:00;7.80;99.90
43810;DHT22;29440;48.208;11.162;2023-04-01T20:51:29;7.80;99.90
43810;DHT22;29440;48.208;11.162;2023-04-01T20:54:18;7.80;99.90
43810;DHT22;29440;48.208;11.162;2023-04-01T21:00:03;7.80;99.90
43810;DHT22;29440;48.208;11.162;2023-04-01T21:07:52;7.70;99.90
43810;DHT22;29440;48.208;11.162;2023-04-01T21:10:34;7.70;99.90
43810;DHT22;29440;48.208;11.162;2023-04-01T21:13:36;7.70;99.90
43810;DHT22;29440;48.208;11.162;2023-04-01T21:16:19;7.60;99.90
43810;DHT22;29440;48.208;11.162;2023-04-01T21:21:41;7.70;99.90
43810;DHT22;29440;48.208;11.162;2023-04-01T21:27:29;7.60;99.90
43810;DHT22;29440;48.208;11.162;2023-04-01T21:43:52;7.60;99.90
43810;DHT22;29440;48.208;11.162;2023-04-01T21:52:09;7.60;99.90
43810;DHT22;29440;48.208;11.162;2023-04-01T22:00:18;7.60;99.90
43810;DHT22;29440;48.208;11.162;2023-04-01T22:05:40;7.60;99.90
43810;DHT22;29440;48.208;11.162;2023-04-01T22:08:58;7.70;99.90
43810;DHT22;29440;48.208;11.162;2023-04-01T22:11:45;7.60;99.90
43810;DHT22;29440;48.208;11.162;2023-04-01T22:14:39;7.60;99.90
43810;DHT22;29440;48.208;11.162;2023-04-01T22:20:23;7.60;99.90
43810;DHT22;29440;48.208;11.162;2023-04-01T22:23:14;7.60;99.90
43810;DHT22;29440;48.208;11.162;2023-04-01T22:31:13;7.70;99.90
43810;DHT22;29440;48.208;11.162;2023-04-01T22:39:07;7.70;99.90
43810;DHT22;29440;48.208;11.162;2023-04-01T22:42:00;7.70;99.90
43810;DHT22;29440;48.208;11.162;2023-04-01T22:48:17;7.70;99.90
43810;DHT22;29440;48.208;11.162;2023-04-01T22:51:00;7.70;99.90
43810;DHT22;29440;48.208;11.162;2023-04-01T22:56:09;7.70;99.90
43810;DHT22;29440;48.208;11.162;2023-04-01T22:58:54;7.70;99.90
43810;DHT22;29440;48.208;11.162;2023-04-01T23:01:25;7.70;99.90
43810;DHT22;29440;48.208;11.162;2023-04-01T23:03:55;7.70;99.90
43810;DHT22;29440;48.208;11.162;2023-04-01T23:06:35;7.70;99.90
43810;DHT22;29440;48.208;11.162;2023-04-01T23:12:19;7.70;99.90
43810;DHT22;29440;48.208;11.162;2023-04-01T23:20:23;7.70;99.90
43810;DHT22;29440;48.208;11.162;2023-04-01T23:34:01;7.70;99.90
43810;DHT22;29440;48.208;11.162;2023-04-01T23:36:28;7.70;99.90
43810;DHT22;29440;48.208;11.162;2023-04-01T23:38:55;7.70;99.90
43810;DHT22;29440;48.208;11.162;2023-04-01T23:41:39;7.70;99.90
43810;DHT22;29440;48.208;11.162;2023-04-01T23:44:11;7.70;99.90
43810;DHT22;29440;48.208;11.162;2023-04-01T23:46:39;7.70;99.90
43810;DHT22;29440;48.208;11.162;2023-04-01T23:49:14;7.60;99.90
43810;DHT22;29440;48.208;11.162;2023-04-01T23:51:53;7.70;99.90
43810;DHT22;29440;48.208;11.162;2023-04-01T23:54:33;7.60;99.90
43810;DHT22;29440;48.208;11.162;2023-04-01T23:57:04;7.70;99.90
43810;DHT22;29440;48.208;11.162;2023-04-01T23:59:33;7.60;99.90
